Time;durP1;ratioP1;P1;durP2;ratioP2;P2;SDS_P1;SDS_P2;PMS_P1;PMS_P2;Temp;Humidity;BMP_temperature;BMP_pressure;BME280_temperature;BME280_humidity;BME280_pressure;Samples;Min_cycle;Max_cycle;Signal;HPM_P1;HPM_P2
2023/03/09 00:02:22;;;;;;;16.00;6.57;;;4.70;99.90;;;;;;5003096;28;20040;-69
2023/03/09 00:04:48;;;;;;;20.13;8.07;;;4.70;99.90;;;;;;5003723;28;20026;-69
2023/03/09 00:07:14;;;;;;;16.85;6.57;;;4.70;99.90;;;;;;5002838;28;20087;-69
2023/03/09 00:09:39;;;;;;;17.00;6.93;;;4.70;99.90;;;;;;5019837;28;20030;-69
2023/03/09 00:12:05;;;;;;;15.63;6.43;;;4.70;99.90;;;;;;5020018;28;20032;-70
2023/03/09 00:14:30;;;;;;;19.92;7.80;;;4.70;99.90;;;;;;5003339;28;20108;-69
2023/03/09 00:16:56;;;;;;;22.98;8.00;;;4.60;99.90;;;;;;5002770;28;20014;-70
2023/03/09 00:19:26;;;;;;;16.40;7.47;;;4.60;99.90;;;;;;5020065;28;20030;-70
2023/03/09 00:21:53;;;;;;;22.10;7.32;;;4.70;99.90;;;;;;5002503;28;20065;-69
2023/03/09 00:24:26;;;;;;;15.88;6.18;;;4.50;99.90;;;;;;5019806;28;20030;-70
2023/03/09 00:26:54;;;;;;;17.38;6.85;;;4.30;99.90;;;;;;5019692;28;20086;-71
2023/03/09 00:29:20;;;;;;;22.73;7.43;;;4.50;99.90;;;;;;5002347;28;20022;-70
2023/03/09 00:31:46;;;;;;;22.02;8.05;;;4.40;99.90;;;;;;5002372;28;20025;-70
2023/03/09 00:34:13;;;;;;;19.88;7.88;;;4.60;99.90;;;;;;5002378;28;20022;-70
2023/03/09 00:36:39;;;;;;;17.77;7.18;;;4.50;99.90;;;;;;5002627;28;20030;-71
2023/03/09 00:39:05;;;;;;;18.42;7.13;;;4.60;99.90;;;;;;5019422;28;20080;-70
2023/03/09 00:41:31;;;;;;;18.23;8.00;;;4.70;99.90;;;;;;5002071;28;20034;-70
2023/03/09 00:44:01;;;;;;;23.52;8.70;;;4.60;99.90;;;;;;5019406;28;20029;-70
2023/03/09 00:46:28;;;;;;;17.50;7.70;;;4.70;99.90;;;;;;5019193;28;20029;-70
2023/03/09 00:48:53;;;;;;;16.05;7.13;;;4.60;99.90;;;;;;5001971;28;20098;-70
2023/03/09 00:51:19;;;;;;;20.60;7.70;;;4.70;99.90;;;;;;5019083;28;20057;-71
2023/03/09 00:53:45;;;;;;;26.63;10.10;;;4.70;99.90;;;;;;5001765;28;20028;-70
2023/03/09 00:56:17;;;;;;;23.48;7.85;;;4.70;99.90;;;;;;5002315;28;20033;-70
2023/03/09 00:58:42;;;;;;;;;;;4.70;99.90;;;;;;5019751;28;20101;-70
2023/03/09 01:01:09;;;;;;;20.08;8.07;;;4.60;99.90;;;;;;5018885;28;19940;-70
2023/03/09 01:03:35;;;;;;;23.00;8.10;;;4.60;99.90;;;;;;5002104;28;20111;-70
2023/03/09 01:06:01;;;;;;;31.30;9.43;;;4.60;99.90;;;;;;5019199;28;20036;-70
2023/03/09 01:08:27;;;;;;;28.50;9.57;;;4.60;99.90;;;;;;5001608;28;20030;-70
2023/03/09 01:10:52;;;;;;;34.60;10.38;;;4.60;99.90;;;;;;5001922;28;20026;-70
2023/03/09 01:13:18;;;;;;;33.38;10.23;;;4.60;99.90;;;;;;5001618;28;20026;-70
2023/03/09 01:15:44;;;;;;;37.47;10.50;;;4.50;99.90;;;;;;5001579;28;20061;-71
2023/03/09 01:18:09;;;;;;;29.15;10.43;;;4.50;99.90;;;;;;5002611;28;20014;-70
2023/03/09 01:20:35;;;;;;;36.15;11.65;;;4.50;99.90;;;;;;5001572;28;20022;-70
2023/03/09 01:23:00;;;;;;;40.80;12.15;;;4.60;99.90;;;;;;5018593;28;20029;-70
2023/03/09 01:25:27;;;;;;;40.63;11.90;;;4.60;99.90;;;;;;5002409;28;20022;-70
2023/03/09 01:27:52;;;;;;;30.35;10.85;;;4.60;99.90;;;;;;5018639;28;20018;-70
2023/03/09 01:30:18;;;;;;;31.38;9.75;;;4.60;99.90;;;;;;5001241;28;20033;-71
2023/03/09 01:32:43;;;;;;;28.30;10.45;;;4.60;99.90;;;;;;5001997;28;20026;-70
2023/03/09 01:35:09;;;;;;;33.95;11.30;;;4.60;99.90;;;;;;5001280;28;20026;-70
2023/03/09 01:37:35;;;;;;;33.63;10.85;;;4.60;99.90;;;;;;5001033;28;20065;-70
2023/03/09 01:40:01;;;;;;;41.00;12.95;;;4.60;99.90;;;;;;5001270;28;20033;-70
2023/03/09 01:42:26;;;;;;;32.33;11.07;;;4.60;99.90;;;;;;5001837;28;20048;-70
2023/03/09 01:45:24;;;;;;;26.00;10.65;;;4.60;99.90;;;;;;5001008;28;20025;-70
2023/03/09 01:47:49;;;;;;;35.03;10.55;;;4.60;99.90;;;;;;5001088;28;20030;-70
2023/03/09 01:50:19;;;;;;;29.65;10.75;;;4.60;99.90;;;;;;5000858;28;20034;-70
2023/03/09 01:52:46;;;;;;;30.48;11.88;;;4.60;99.90;;;;;;5018129;28;20092;-70
2023/03/09 01:55:18;;;;;;;27.80;9.95;;;4.70;99.90;;;;;;5001588;28;20091;-70
2023/03/09 01:58:13;;;;;;;35.45;12.43;;;4.60;99.90;;;;;;5001832;28;20117;-70
2023/03/09 02:00:42;;;;;;;36.05;10.65;;;4.60;99.90;;;;;;5000647;28;20032;-70
2023/03/09 02:03:12;;;;;;;38.00;11.88;;;4.70;99.90;;;;;;5017842;28;20062;-70
2023/03/09 02:05:44;;;;;;;34.45;11.45;;;4.70;99.90;;;;;;5000879;28;20030;-70
2023/03/09 02:08:11;;;;;;;38.97;10.65;;;4.70;99.90;;;;;;5001371;28;20026;-70
2023/03/09 02:10:43;;;;;;;36.33;12.23;;;4.70;99.90;;;;;;5000733;28;20033;-70
2023/03/09 02:13:13;;;;;;;34.85;12.00;;;4.70;99.90;;;;;;5017858;28;20026;-70
2023/03/09 02:15:39;;;;;;;21.20;9.50;;;4.70;99.90;;;;;;5000322;28;20045;-69
2023/03/09 02:18:05;;;;;;;42.30;11.18;;;4.50;99.90;;;;;;5017702;28;20029;-69
2023/03/09 02:20:34;;;;;;;31.92;11.23;;;4.60;99.90;;;;;;5017162;28;20026;-69
2023/03/09 02:23:01;;;;;;;46.53;11.55;;;4.50;99.90;;;;;;5017553;28;20026;-69
2023/03/09 02:25:45;;;;;;;32.10;11.30;;;4.60;99.90;;;;;;5017843;28;20064;-69
2023/03/09 02:28:11;;;;;;;38.75;11.07;;;4.60;99.90;;;;;;5017535;28;20024;-70
2023/03/09 02:30:41;;;;;;;37.25;12.02;;;4.50;99.90;;;;;;5000304;28;20017;-69
2023/03/09 02:33:25;;;;;;;44.25;12.55;;;4.50;99.90;;;;;;5000188;28;20029;-69
2023/03/09 02:36:00;;;;;;;40.13;11.60;;;4.60;99.90;;;;;;5017718;28;20022;-69
2023/03/09 02:38:26;;;;;;;42.88;12.82;;;4.60;99.90;;;;;;5017660;28;20025;-70
2023/03/09 02:40:56;;;;;;;39.42;13.20;;;4.60;99.90;;;;;;5017611;28;20029;-69
2023/03/09 02:43:26;;;;;;;35.53;11.63;;;4.70;99.90;;;;;;5000440;28;20113;-70
2023/03/09 02:45:52;;;;;;;35.22;11.55;;;4.60;99.90;;;;;;5000427;28;20025;-69
2023/03/09 02:48:18;;;;;;;34.22;11.15;;;4.60;99.90;;;;;;5000728;28;20032;-69
2023/03/09 02:50:43;;;;;;;32.22;11.55;;;4.50;99.90;;;;;;5017222;28;20097;-69
2023/03/09 02:53:10;;;;;;;37.25;11.68;;;4.50;99.90;;;;;;5000223;28;20022;-69
2023/03/09 02:55:36;;;;;;;43.70;11.63;;;4.50;99.90;;;;;;5017227;28;20040;-70
2023/03/09 02:58:01;;;;;;;42.88;11.80;;;4.60;99.90;;;;;;5000022;28;20112;-70
2023/03/09 03:00:27;;;;;;;49.03;12.45;;;4.50;99.90;;;;;;4999947;28;20094;-68
2023/03/09 03:02:53;;;;;;;42.33;12.82;;;4.60;99.90;;;;;;5017200;28;20237;-68
2023/03/09 03:05:18;;;;;;;51.25;13.30;;;4.70;99.90;;;;;;5017179;28;20026;-68
2023/03/09 03:07:44;;;;;;;36.92;12.73;;;4.70;99.90;;;;;;5000098;28;20026;-68
2023/03/09 03:10:11;;;;;;;39.95;12.75;;;4.80;99.90;;;;;;5017324;28;20022;-68
2023/03/09 03:12:36;;;;;;;42.22;13.27;;;4.80;99.90;;;;;;4999965;28;20036;-68
2023/03/09 03:15:02;;;;;;;35.88;12.45;;;4.70;99.90;;;;;;4999854;28;20018;-68
2023/03/09 03:17:28;;;;;;;43.28;11.38;;;4.70;99.90;;;;;;4999843;28;20026;-68
2023/03/09 03:19:54;;;;;;;41.30;12.85;;;4.70;99.90;;;;;;4999787;28;20080;-68
2023/03/09 03:22:19;;;;;;;29.73;11.15;;;4.70;99.90;;;;;;5000067;28;20036;-68
2023/03/09 03:24:45;;;;;;;30.98;10.30;;;4.50;99.90;;;;;;5017033;28;20030;-68
2023/03/09 03:27:10;;;;;;;43.55;12.43;;;4.40;99.90;;;;;;5000419;28;20026;-68
2023/03/09 03:29:36;;;;;;;42.53;13.38;;;4.40;99.90;;;;;;5000768;28;20029;-68
2023/03/09 03:32:02;;;;;;;37.00;12.02;;;4.50;99.90;;;;;;5002049;28;20029;-68
2023/03/09 03:34:28;;;;;;;37.78;13.65;;;4.40;99.90;;;;;;5003529;28;20018;-68
2023/03/09 03:36:54;;;;;;;42.75;13.02;;;4.50;99.90;;;;;;5003654;28;20048;-68
2023/03/09 03:39:19;;;;;;;41.30;13.35;;;4.60;99.90;;;;;;5003270;28;20026;-68
2023/03/09 03:41:45;;;;;;;26.05;9.38;;;4.70;99.90;;;;;;5003342;28;20022;-68
2023/03/09 03:44:10;;;;;;;35.78;11.52;;;4.80;99.90;;;;;;5004347;28;20026;-68
2023/03/09 03:46:36;;;;;;;29.45;11.32;;;4.90;99.90;;;;;;5003496;28;20026;-69
2023/03/09 03:49:02;;;;;;;33.47;11.05;;;4.70;99.90;;;;;;5002956;28;20077;-68
2023/03/09 03:51:27;;;;;;;39.75;12.15;;;4.70;99.90;;;;;;5002994;28;20037;-68
2023/03/09 03:53:53;;;;;;;38.53;12.48;;;4.70;99.90;;;;;;5020846;28;20030;-68
2023/03/09 03:56:19;;;;;;;31.85;12.30;;;4.80;99.90;;;;;;5003305;28;20022;-68
2023/03/09 03:58:45;;;;;;;36.67;12.82;;;4.90;99.90;;;;;;5003065;28;20079;-68
2023/03/09 04:01:10;;;;;;;44.55;12.65;;;4.80;99.90;;;;;;5003050;28;20120;-68
2023/03/09 04:03:36;;;;;;;43.10;12.50;;;4.90;99.90;;;;;;5020370;28;20139;-68
2023/03/09 04:06:02;;;;;;;39.08;11.93;;;4.90;99.90;;;;;;5020693;28;20036;-68
2023/03/09 04:08:28;;;;;;;37.28;11.75;;;5.00;99.90;;;;;;5002648;28;20025;-68
2023/03/09 04:10:54;;;;;;;36.80;12.27;;;5.00;99.90;;;;;;5002912;28;20036;-68
2023/03/09 04:13:20;;;;;;;36.70;11.63;;;5.10;99.90;;;;;;5002928;28;20014;-68
2023/03/09 04:15:45;;;;;;;29.23;10.93;;;5.10;99.90;;;;;;5002600;28;20026;-68
2023/03/09 04:18:11;;;;;;;51.85;14.57;;;5.10;99.90;;;;;;5020103;28;20052;-68
2023/03/09 04:20:38;;;;;;;40.08;11.40;;;5.10;99.90;;;;;;5002693;28;20030;-68
2023/03/09 04:23:04;;;;;;;33.88;10.13;;;5.10;99.90;;;;;;5020219;28;20036;-68
2023/03/09 04:25:29;;;;;;;34.15;10.60;;;5.00;99.90;;;;;;5020074;28;20030;-68
2023/03/09 04:27:56;;;;;;;40.22;12.05;;;4.80;99.90;;;;;;5003477;28;20034;-68
2023/03/09 04:30:22;;;;;;;37.80;12.32;;;4.90;99.90;;;;;;5002239;28;20057;-68
2023/03/09 04:32:48;;;;;;;40.92;12.32;;;4.90;99.90;;;;;;5003502;28;20056;-68
2023/03/09 04:35:15;;;;;;;43.38;13.43;;;4.90;99.90;;;;;;5002548;28;20022;-68
2023/03/09 04:37:41;;;;;;;40.55;12.35;;;4.90;99.90;;;;;;5019498;28;20049;-68
2023/03/09 04:40:07;;;;;;;33.42;11.88;;;4.90;99.90;;;;;;5002199;28;20065;-68
2023/03/09 04:42:33;;;;;;;39.92;12.63;;;4.90;99.90;;;;;;5001760;28;20034;-68
2023/03/09 04:44:58;;;;;;;43.00;13.27;;;5.00;99.90;;;;;;5002158;28;20026;-68
2023/03/09 04:47:24;;;;;;;48.17;12.65;;;4.90;99.90;;;;;;5019297;28;20034;-68
2023/03/09 04:49:49;;;;;;;43.40;12.30;;;4.90;99.90;;;;;;5019288;28;20030;-68
2023/03/09 04:52:15;;;;;;;43.33;14.60;;;4.90;99.90;;;;;;5019506;28;20120;-68
2023/03/09 04:54:41;;;;;;;45.63;13.68;;;5.00;99.90;;;;;;5019192;28;20025;-68
2023/03/09 04:57:07;;;;;;;48.75;13.88;;;5.10;99.90;;;;;;5019140;28;20041;-68
2023/03/09 04:59:33;;;;;;;42.63;13.15;;;5.10;99.90;;;;;;5019063;28;20026;-68
2023/03/09 05:01:58;;;;;;;46.33;13.23;;;5.10;99.90;;;;;;5002602;28;20112;-68
2023/03/09 05:04:24;;;;;;;42.65;14.32;;;5.10;99.90;;;;;;5001837;28;20116;-68
2023/03/09 05:06:50;;;;;;;41.15;13.25;;;5.10;99.90;;;;;;5002133;28;20030;-69
2023/03/09 05:09:16;;;;;;;50.85;14.00;;;5.10;99.90;;;;;;5018851;28;20030;-68
2023/03/09 05:11:42;;;;;;;45.05;14.30;;;5.00;99.90;;;;;;5018894;28;20044;-68
2023/03/09 05:14:08;;;;;;;54.17;16.08;;;5.10;99.90;;;;;;5001838;28;20022;-68
2023/03/09 05:16:33;;;;;;;52.03;14.43;;;5.10;99.90;;;;;;5001692;28;20034;-68
2023/03/09 05:18:59;;;;;;;38.85;13.25;;;5.10;99.90;;;;;;5001560;28;20022;-68
2023/03/09 05:21:24;;;;;;;44.38;13.55;;;4.90;99.90;;;;;;5018516;28;20030;-68
2023/03/09 05:23:50;;;;;;;38.28;12.95;;;4.90;99.90;;;;;;5009238;28;20024;-68
2023/03/09 05:26:15;;;;;;;40.88;12.80;;;4.80;99.90;;;;;;5021065;28;20029;-68
2023/03/09 05:28:41;;;;;;;45.78;13.82;;;4.80;99.90;;;;;;5038777;28;20033;-68
2023/03/09 05:31:08;;;;;;;50.20;13.70;;;4.90;99.90;;;;;;5020897;28;20023;-68
2023/03/09 05:33:34;;;;;;;55.90;15.18;;;5.00;99.90;;;;;;5038241;28;20071;-68
2023/03/09 05:35:59;;;;;;;48.70;15.90;;;5.00;99.90;;;;;;5038309;28;20029;-68
2023/03/09 05:38:25;;;;;;;48.05;14.32;;;5.10;99.90;;;;;;5021892;28;20028;-68
2023/03/09 05:40:50;;;;;;;57.65;15.05;;;5.10;99.90;;;;;;5020602;28;20021;-69
2023/03/09 05:43:16;;;;;;;54.45;14.95;;;5.10;99.90;;;;;;5021445;28;20028;-68
2023/03/09 05:45:41;;;;;;;60.92;15.50;;;5.10;99.90;;;;;;5020944;28;20018;-68
2023/03/09 05:48:07;;;;;;;61.33;15.43;;;5.10;99.90;;;;;;5020641;28;20021;-69
2023/03/09 05:50:33;;;;;;;56.00;16.27;;;5.20;99.90;;;;;;5061864;22;20029;-65
2023/03/09 05:52:59;;;;;;;48.72;14.80;;;5.20;99.90;;;;;;5036875;28;20085;-65
2023/03/09 05:55:24;;;;;;;46.60;13.45;;;5.20;99.90;;;;;;5037211;28;20147;-65
2023/03/09 05:57:50;;;;;;;46.05;13.85;;;5.10;99.90;;;;;;5037167;28;20108;-65
2023/03/09 06:00:16;;;;;;;56.45;15.77;;;5.20;99.90;;;;;;5037531;28;20022;-65
2023/03/09 06:02:42;;;;;;;46.60;15.90;;;5.30;99.90;;;;;;5037575;28;20026;-65
2023/03/09 06:05:08;;;;;;;53.08;15.57;;;5.30;99.90;;;;;;5036901;28;20080;-66
2023/03/09 06:07:33;;;;;;;46.70;13.45;;;5.40;99.90;;;;;;5036951;28;20030;-65
2023/03/09 06:09:59;;;;;;;30.88;12.10;;;5.30;99.90;;;;;;5036586;28;20026;-65
2023/03/09 06:12:25;;;;;;;28.17;11.13;;;5.40;99.90;;;;;;5036673;28;20065;-65
2023/03/09 06:14:52;;;;;;;24.42;10.65;;;5.50;99.90;;;;;;5037335;28;20045;-65
2023/03/09 06:17:18;;;;;;;21.63;9.65;;;5.60;99.90;;;;;;5037624;28;20025;-65
2023/03/09 06:19:43;;;;;;;21.52;9.43;;;5.60;99.90;;;;;;5036704;28;20026;-65
2023/03/09 06:22:09;;;;;;;19.83;8.65;;;5.60;99.90;;;;;;5037364;28;20029;-65
2023/03/09 06:24:35;;;;;;;30.08;11.55;;;5.60;99.90;;;;;;5036555;28;20025;-65
2023/03/09 06:27:02;;;;;;;27.67;9.95;;;5.60;99.90;;;;;;5036395;28;20029;-65
2023/03/09 06:29:28;;;;;;;19.52;9.15;;;5.70;99.90;;;;;;5036506;28;20049;-65
2023/03/09 06:31:53;;;;;;;23.08;9.27;;;5.80;99.90;;;;;;5036566;28;20065;-65
2023/03/09 06:34:19;;;;;;;21.88;9.90;;;5.90;99.90;;;;;;5036256;28;20075;-65
2023/03/09 06:36:45;;;;;;;23.02;9.57;;;5.90;99.90;;;;;;5036263;28;20025;-65
2023/03/09 06:39:11;;;;;;;20.65;8.93;;;6.00;99.90;;;;;;5036279;28;20124;-66
2023/03/09 06:41:37;;;;;;;22.58;9.57;;;6.00;99.90;;;;;;5036295;28;20076;-66
2023/03/09 06:44:03;;;;;;;19.23;9.85;;;6.10;99.90;;;;;;5036952;28;20025;-66
2023/03/09 06:46:29;;;;;;;24.52;10.18;;;6.20;99.90;;;;;;5036552;28;20117;-65
2023/03/09 06:48:55;;;;;;;25.42;10.32;;;6.20;99.90;;;;;;5036440;28;20124;-66
2023/03/09 06:51:21;;;;;;;18.35;9.07;;;6.30;99.90;;;;;;5036227;28;20026;-65
2023/03/09 06:53:47;;;;;;;23.45;10.00;;;6.30;99.90;;;;;;5037010;28;20056;-65
2023/03/09 06:56:13;;;;;;;25.45;12.07;;;6.40;99.90;;;;;;5036321;28;20053;-65
2023/03/09 06:58:39;;;;;;;28.95;12.07;;;6.20;99.90;;;;;;5036354;28;20025;-65
2023/03/09 07:01:14;;;;;;;27.52;11.70;;;6.20;99.90;;;;;;5036000;28;20075;-65
2023/03/09 07:03:40;;;;;;;25.98;11.40;;;6.10;99.90;;;;;;5037299;28;20013;-65
2023/03/09 07:06:06;;;;;;;23.33;10.93;;;6.00;99.90;;;;;;5038561;28;20026;-65
2023/03/09 07:08:32;;;;;;;29.55;12.48;;;6.10;99.90;;;;;;5041277;28;20032;-65
2023/03/09 07:10:59;;;;;;;25.42;12.50;;;6.20;99.90;;;;;;5039934;28;20017;-65
2023/03/09 07:13:24;;;;;;;25.25;11.07;;;6.20;99.90;;;;;;5040887;28;20026;-66
2023/03/09 07:15:50;;;;;;;32.17;12.18;;;6.20;99.90;;;;;;5040112;28;20112;-65
2023/03/09 07:18:16;;;;;;;35.92;13.70;;;6.30;99.90;;;;;;5040197;28;20044;-66
2023/03/09 07:20:42;;;;;;;32.97;13.73;;;6.40;99.90;;;;;;5039851;28;20029;-66
2023/03/09 07:23:08;;;;;;;32.78;13.73;;;6.40;99.90;;;;;;5040632;28;20033;-66
2023/03/09 07:25:35;;;;;;;41.50;14.80;;;6.50;99.90;;;;;;5039733;28;20037;-66
2023/03/09 07:28:02;;;;;;;33.28;14.63;;;6.60;99.90;;;;;;5039746;28;20026;-65
2023/03/09 07:30:28;;;;;;;40.15;15.40;;;6.60;99.90;;;;;;5039576;28;20112;-66
2023/03/09 07:32:56;;;;;;;39.58;14.80;;;6.60;99.90;;;;;;5040009;28;20025;-66
2023/03/09 07:35:21;;;;;;;44.42;16.35;;;6.60;99.90;;;;;;5039649;28;20056;-67
2023/03/09 07:37:47;;;;;;;60.63;17.42;;;6.60;99.90;;;;;;5040417;28;20045;-66
2023/03/09 07:40:12;;;;;;;58.75;17.92;;;6.70;99.90;;;;;;5039546;28;20022;-66
2023/03/09 07:42:38;;;;;;;52.78;15.35;;;6.80;99.90;;;;;;5040547;28;20037;-66
2023/03/09 07:45:05;;;;;;;44.50;16.02;;;6.80;99.90;;;;;;5039814;28;20036;-66
2023/03/09 07:47:32;;;;;;;48.40;14.40;;;6.80;99.90;;;;;;5039492;28;20037;-66
2023/03/09 07:49:58;;;;;;;66.22;18.33;;;6.70;99.90;;;;;;5039079;28;20134;-65
2023/03/09 07:52:30;;;;;;;39.30;14.98;;;6.70;99.90;;;;;;5040178;28;20025;-66
2023/03/09 07:54:59;;;;;;;67.15;19.08;;;6.70;99.90;;;;;;5039220;28;20159;-65
2023/03/09 07:57:28;;;;;;;74.47;19.65;;;6.70;99.90;;;;;;5039137;28;20029;-65
2023/03/09 07:59:54;;;;;;;51.28;15.32;;;6.60;99.90;;;;;;5039905;28;20026;-64
2023/03/09 08:02:20;;;;;;;57.47;16.25;;;6.40;99.90;;;;;;5039110;28;20026;-65
2023/03/09 08:04:46;;;;;;;61.42;17.17;;;6.30;99.90;;;;;;5039103;28;20108;-65
2023/03/09 09:40:54;;;;;;;10.13;4.53;;;8.10;99.90;;;;;;5115124;27;20422;-71
2023/03/09 09:43:24;;;;;;;14.45;5.75;;;9.10;99.90;;;;;;5114016;28;20120;-70
2023/03/09 09:45:53;;;;;;;4.10;2.45;;;9.20;99.90;;;;;;5115320;28;20023;-71
2023/03/09 09:48:19;;;;;;;3.58;1.65;;;9.40;99.90;;;;;;5114759;28;20031;-71
2023/03/09 09:51:09;;;;;;;3.25;1.83;;;9.40;99.90;;;;;;5114800;28;20039;-71
2023/03/09 09:53:58;;;;;;;4.72;1.55;;;9.50;99.90;;;;;;5113965;28;20038;-71
2023/03/09 09:56:36;;;;;;;4.93;0.98;;;9.60;99.90;;;;;;5114633;28;20019;-71
2023/03/09 09:59:11;;;;;;;1.35;0.40;;;9.80;99.90;;;;;;5114669;28;20027;-71
2023/03/09 10:01:56;;;;;;;1.77;0.50;;;10.00;99.90;;;;;;5115011;28;20023;-71
2023/03/09 10:04:28;;;;;;;1.60;0.93;;;10.10;99.90;;;;;;5115204;28;20019;-71
2023/03/09 10:06:58;;;;;;;2.00;0.55;;;10.10;99.90;;;;;;5113423;28;20031;-71
2023/03/09 10:09:30;;;;;;;1.45;0.80;;;10.20;99.90;;;;;;5113495;28;20107;-71
2023/03/09 10:12:06;;;;;;;1.38;0.50;;;10.30;99.90;;;;;;5114238;28;20115;-71
2023/03/09 10:15:12;;;;;;;2.05;0.60;;;10.30;99.90;;;;;;5113483;28;20016;-71
2023/03/09 10:17:55;;;;;;;1.00;0.82;;;10.40;99.90;;;;;;5114040;28;20016;-71
2023/03/09 10:20:37;;;;;;;0.88;0.32;;;10.40;99.90;;;;;;5114002;28;20034;-71
2023/03/09 10:23:12;;;;;;;1.27;0.90;;;10.40;99.90;;;;;;5113727;28;20027;-71
2023/03/09 10:25:38;;;;;;;2.63;0.75;;;10.50;99.90;;;;;;5113313;28;20032;-71
2023/03/09 10:28:17;;;;;;;1.95;0.80;;;10.50;99.90;;;;;;5114312;28;20024;-71
2023/03/09 10:30:54;;;;;;;4.20;1.45;;;10.50;99.90;;;;;;5113037;28;20030;-71
2023/03/09 10:34:23;;;;;;;1.85;0.60;;;10.50;99.90;;;;;;5114215;28;20119;-71
2023/03/09 10:37:10;;;;;;;2.15;1.10;;;10.60;99.90;;;;;;5092464;28;20020;-71
2023/03/09 10:39:42;;;;;;;5.13;2.05;;;10.60;99.90;;;;;;5092303;28;20043;-71
2023/03/09 10:42:26;;;;;;;1.15;0.90;;;10.70;99.90;;;;;;5091853;28;20055;-71
2023/03/09 10:45:15;;;;;;;1.60;0.70;;;10.70;99.90;;;;;;5074753;28;20024;-71
2023/03/09 10:47:53;;;;;;;3.08;0.60;;;10.80;99.90;;;;;;5074723;28;20131;-71
2023/03/09 10:50:21;;;;;;;1.27;0.47;;;10.80;99.90;;;;;;5072083;28;20021;-71
2023/03/09 10:52:47;;;;;;;4.82;0.63;;;10.80;99.90;;;;;;5078043;28;20106;-71
2023/03/09 10:55:34;;;;;;;0.47;0.40;;;10.80;99.90;;;;;;5061310;28;20028;-71
2023/03/09 10:58:22;;;;;;;4.18;0.60;;;10.80;99.90;;;;;;5078240;28;20041;-71
2023/03/09 11:01:04;;;;;;;1.52;0.50;;;10.80;99.90;;;;;;5061514;28;20025;-71
2023/03/09 11:03:31;;;;;;;0.28;0.22;;;10.80;99.90;;;;;;5061877;28;20060;-71
2023/03/09 11:06:35;;;;;;;3.53;0.50;;;10.80;99.90;;;;;;5077819;28;20029;-71
2023/03/09 11:09:35;;;;;;;1.58;0.50;;;10.80;99.90;;;;;;5061188;28;20025;-71
2023/03/09 11:12:40;;;;;;;0.43;0.43;;;10.90;99.90;;;;;;5099487;28;20048;-71
2023/03/09 11:15:14;;;;;;;0.60;0.60;;;11.00;99.90;;;;;;5061008;28;20044;-71
2023/03/09 11:17:42;;;;;;;1.65;0.50;;;10.90;99.90;;;;;;5078071;28;20167;-71
2023/03/09 11:20:30;;;;;;;2.25;0.75;;;10.90;99.90;;;;;;5077757;28;20195;-71
2023/03/09 11:23:18;;;;;;;2.50;1.10;;;11.00;99.90;;;;;;5061482;28;20029;-71
2023/03/09 11:26:02;;;;;;;1.70;0.57;;;11.10;99.90;;;;;;5078021;28;20067;-71
2023/03/09 11:28:54;;;;;;;1.77;0.57;;;11.10;99.90;;;;;;5077492;28;20028;-71
2023/03/09 11:31:24;;;;;;;1.33;0.70;;;11.10;99.90;;;;;;5061359;28;20040;-71
2023/03/09 11:33:52;;;;;;;0.60;0.50;;;11.10;99.90;;;;;;5077474;28;20020;-71
2023/03/09 11:36:35;;;;;;;0.82;0.30;;;11.00;99.90;;;;;;5061251;28;20017;-71
2023/03/09 11:39:03;;;;;;;4.38;0.70;;;10.80;99.90;;;;;;5060561;28;20044;-71
2023/03/09 11:41:33;;;;;;;2.85;0.70;;;10.60;99.90;;;;;;5060538;28;20116;-71
2023/03/09 11:44:23;;;;;;;2.05;0.70;;;10.50;99.90;;;;;;5060501;28;20067;-71
2023/03/09 11:46:53;;;;;;;0.98;0.70;;;10.40;99.90;;;;;;5061087;28;20027;-71
2023/03/09 11:49:23;;;;;;;1.63;0.60;;;10.40;99.90;;;;;;5060256;28;20024;-71
2023/03/09 11:51:51;;;;;;;2.65;0.80;;;10.30;99.90;;;;;;5086338;28;20032;-71
2023/03/09 11:54:25;;;;;;;2.83;0.70;;;10.30;99.90;;;;;;5097974;28;20119;-71
2023/03/09 11:56:52;;;;;;;0.77;0.60;;;10.20;99.90;;;;;;5097918;28;20020;-71
2023/03/09 11:59:20;;;;;;;3.35;0.65;;;10.20;99.90;;;;;;5097868;28;20027;-71
2023/03/09 12:02:22;;;;;;;1.65;0.95;;;10.10;99.90;;;;;;5098297;28;20024;-71
2023/03/09 12:04:50;;;;;;;2.15;0.93;;;10.10;99.90;;;;;;5098770;28;20119;-71
2023/03/09 12:07:31;;;;;;;1.85;0.90;;;10.20;99.90;;;;;;5097718;28;20036;-71
2023/03/09 12:10:14;;;;;;;2.47;0.95;;;10.50;99.90;;;;;;5097726;28;20035;-71
2023/03/09 12:12:43;;;;;;;2.85;1.30;;;10.60;99.90;;;;;;5098294;28;20028;-71
2023/03/09 12:15:36;;;;;;;1.42;0.93;;;10.60;99.90;;;;;;5098395;28;20024;-71
2023/03/09 12:18:04;;;;;;;1.92;1.08;;;10.70;99.90;;;;;;5098515;28;20023;-71
2023/03/09 12:20:32;;;;;;;2.45;0.90;;;10.70;99.90;;;;;;5098172;28;20048;-71
2023/03/09 12:22:57;;;;;;;1.88;1.25;;;10.80;99.90;;;;;;5098591;28;20059;-72
2023/03/09 12:25:26;;;;;;;4.60;1.30;;;10.70;99.90;;;;;;5098223;28;20031;-72
2023/03/09 12:27:54;;;;;;;2.33;1.25;;;10.80;99.90;;;;;;5097334;28;20102;-72
2023/03/09 12:30:30;;;;;;;3.35;1.98;;;10.90;99.90;;;;;;5097428;28;20051;-72
2023/03/09 12:33:00;;;;;;;3.83;1.25;;;10.70;99.90;;;;;;5097252;28;20028;-72
2023/03/09 12:35:26;;;;;;;3.97;1.65;;;10.60;99.90;;;;;;5097397;28;20054;-72
2023/03/09 12:37:56;;;;;;;2.08;0.90;;;10.60;99.90;;;;;;5098114;28;20032;-71
2023/03/09 12:40:31;;;;;;;1.70;0.93;;;10.60;99.90;;;;;;5097379;28;20032;-72
2023/03/09 12:43:18;;;;;;;2.38;0.90;;;10.60;99.90;;;;;;5097574;28;20027;-72
2023/03/09 12:45:46;;;;;;;9.48;1.77;;;10.90;99.90;;;;;;5097998;28;20020;-72
2023/03/09 12:48:22;;;;;;;2.85;0.80;;;11.00;99.90;;;;;;5097064;28;20078;-72
2023/03/09 12:50:51;;;;;;;2.08;0.75;;;11.10;99.90;;;;;;5096822;28;20119;-72
2023/03/09 12:53:19;;;;;;;2.45;0.93;;;11.10;99.90;;;;;;5097761;28;20020;-72
2023/03/09 12:56:12;;;;;;;3.13;1.67;;;11.00;99.90;;;;;;5097684;28;20027;-71
2023/03/09 12:58:42;;;;;;;5.75;2.00;;;11.00;99.90;;;;;;5097609;28;20064;-72
2023/03/09 13:01:29;;;;;;;3.72;2.10;;;10.90;99.90;;;;;;5097983;28;20012;-70
2023/03/09 13:04:01;;;;;;;4.82;1.85;;;10.80;99.90;;;;;;5097704;28;20103;-70
2023/03/09 13:06:38;;;;;;;4.00;1.60;;;10.90;99.90;;;;;;5096865;28;20028;-70
2023/03/09 13:09:21;;;;;;;3.25;1.40;;;10.90;99.90;;;;;;5096696;28;20035;-69
2023/03/09 13:11:55;;;;;;;2.95;1.35;;;10.90;99.90;;;;;;5096668;28;20028;-69
2023/03/09 13:14:24;;;;;;;3.22;1.52;;;10.90;99.90;;;;;;5096276;28;20059;-69
2023/03/09 13:16:51;;;;;;;2.72;2.05;;;10.90;99.90;;;;;;5097655;28;20024;-69
2023/03/09 13:19:17;;;;;;;2.28;1.60;;;11.10;99.90;;;;;;5096414;28;20024;-72
2023/03/09 13:22:00;;;;;;;2.55;1.85;;;11.00;99.90;;;;;;5097784;28;20023;-72
2023/03/09 13:24:38;;;;;;;4.57;1.80;;;11.10;99.90;;;;;;5097707;28;20031;-72
2023/03/09 13:27:16;;;;;;;3.90;1.23;;;11.00;99.90;;;;;;5096534;28;20028;-72
2023/03/09 13:29:53;;;;;;;1.42;0.65;;;11.00;99.90;;;;;;5097654;28;20035;-72
2023/03/09 13:32:28;;;;;;;3.20;0.90;;;11.00;99.90;;;;;;5096575;28;20028;-72
2023/03/09 13:34:55;;;;;;;1.30;0.63;;;10.90;99.90;;;;;;5097671;28;20024;-72
2023/03/09 13:37:23;;;;;;;1.83;0.38;;;10.80;99.90;;;;;;5096312;28;20024;-72
2023/03/09 13:40:05;;;;;;;2.50;0.70;;;10.80;99.90;;;;;;5097264;28;20028;-71
2023/03/09 13:42:33;;;;;;;0.65;0.40;;;10.80;99.90;;;;;;5096252;28;20020;-71
2023/03/09 13:45:00;;;;;;;0.77;0.60;;;10.80;99.90;;;;;;5096940;28;20082;-71
2023/03/09 13:47:28;;;;;;;1.10;0.47;;;10.80;99.90;;;;;;5096194;28;20024;-72
2023/03/09 13:49:55;;;;;;;0.43;0.30;;;10.80;99.90;;;;;;5097118;28;20028;-71
2023/03/09 13:52:22;;;;;;;0.85;0.35;;;10.90;99.90;;;;;;5096962;28;20062;-70
2023/03/09 13:54:56;;;;;;;1.77;0.60;;;10.80;99.90;;;;;;5097341;28;20028;-71
2023/03/09 13:57:30;;;;;;;1.17;0.50;;;10.90;99.90;;;;;;5096954;28;20103;-72
2023/03/09 14:00:03;;;;;;;2.35;0.70;;;11.00;99.90;;;;;;5096022;28;20035;-72
2023/03/09 14:02:31;;;;;;;0.52;0.43;;;10.90;99.90;;;;;;5097347;28;20024;-71
2023/03/09 14:04:57;;;;;;;0.77;0.43;;;11.00;99.90;;;;;;5096067;28;20023;-66
2023/03/09 14:07:26;;;;;;;4.25;1.40;;;11.00;99.90;;;;;;5097119;28;20024;-66
2023/03/09 14:10:05;;;;;;;4.28;0.70;;;11.10;99.90;;;;;;5096793;28;20034;-65
2023/03/09 14:12:37;;;;;;;1.98;0.73;;;11.20;99.90;;;;;;5096950;28;20027;-65
2023/03/09 14:15:06;;;;;;;2.42;0.85;;;11.30;99.90;;;;;;5097138;28;20059;-75
2023/03/09 14:17:35;;;;;;;2.92;0.80;;;11.40;99.90;;;;;;5095933;28;20033;-63
2023/03/09 14:20:01;;;;;;;5.63;1.63;;;11.40;99.90;;;;;;5096145;28;20066;-64
2023/03/09 14:22:31;;;;;;;1.48;1.20;;;11.40;99.90;;;;;;5097085;28;20085;-63
2023/03/09 14:24:57;;;;;;;3.90;1.10;;;11.50;99.90;;;;;;5096017;28;20078;-65
2023/03/09 14:27:29;;;;;;;4.85;1.15;;;11.30;99.90;;;;;;5098974;28;20020;-64
2023/03/09 14:29:54;;;;;;;7.50;1.77;;;11.10;99.90;;;;;;5099589;28;20028;-70
2023/03/09 14:32:29;;;;;;;44.38;18.27;;;11.10;99.90;;;;;;5099721;28;20036;-69